• Join FlightAware (Why Join?)
  • Login
  • US Flag 
05:49PM EDT


 

Airport Tracker/Info


-or-


 

Live Flight TrackerFlight Track Log ✈ DAL1355 ✈ 30-Apr-2013 ✈ KCAE - KATL

Flight Track Log - Related Links

Times and Time Zones

All times are in EDT time to prevent confusion due to time zone crossing. See the DAL1355 flight status page for this flight to view local times or setup timezone preferences in your user account.

Time Position Orientation Groundspeed Altitude Reporting Facility
EDT Latitude Longitude Course Direction KTS MPH feet Rate Location/Type
06:13PM 33.8867 -81.1214 252° West 235 270 3,600  Level Jacksonville Center
06:14PM 33.8417 -81.1947 234° Southwest 247 284 7,800 3,480 Climbing Jacksonville Center
06:15PM 33.7815 -81.2898 251° West  Level FlightAware Approximate
06:15PM 33.7989 -81.2806 239° Southwest 275 316 10,600  Level Jacksonville Center
06:16PM 33.7468 -81.4088 246° West  Level FlightAware Approximate
06:17PM 33.7048 -81.5243 246° West  Level FlightAware Approximate
06:18PM 33.6674 -81.6418 252° West  Level FlightAware Approximate
06:18PM 33.6969 -81.5944 249° West 400 460 17,800  Level Atlanta Center
06:19PM 33.6636 -81.7103 251° West 400 460 20,500 2,100 Climbing Atlanta Center
06:20PM 33.6242 -81.8408 250° West 412 474 22,000 720 Climbing Atlanta Center
06:21PM 33.5869 -81.9742 252° West 417 480 22,000  Level Atlanta Center
06:22PM 33.5600 -82.1119 257° West 422 486 22,000  Level Atlanta Center
06:23PM 33.5328 -82.2494 257° West 422 486 22,000  Level Atlanta Center
06:24PM 33.5078 -82.3894 258° West 427 491 22,000  Level Atlanta Center
06:25PM 33.4844 -82.5344 259° West 427 491 22,000  Level Atlanta Center
06:26PM 33.4569 -82.6719 257° West 421 484 22,000  Level Atlanta Center
06:27PM 33.4228 -82.8092 253° West 421 484 22,000  Level Atlanta Center
06:28PM 33.3992 -82.9439 258° West 416 479 22,000  Level Atlanta Center
06:29PM 33.3689 -83.0811 255° West 416 479 22,000  Level Atlanta Center
06:30PM 33.3406 -83.2233 257° West 425 489 22,000 -420 Level Atlanta Center
06:31PM 33.3103 -83.3653 256° West 439 505 21,200 -900 Descending Atlanta Center
06:32PM 33.2817 -83.5047 256° West 444 511 20,200 -1,860 Descending Atlanta Center
06:33PM 33.2550 -83.6339 256° West 438 504 17,500 -3,240 Descending Atlanta Center
06:33PM 33.2333 -83.7000 249° West 423 487 15,800 -2,580 Descending Atlanta TRACON
06:34PM 33.2333 -83.8167 270° West 399 459 14,000 -1,140 Descending Atlanta TRACON
06:35PM 33.2619 -83.8822 298° West 384 442 14,000 -660 Level Atlanta Center
06:36PM 33.3289 -83.9817 309° West 369 425 13,000 -1,020 Descending Atlanta Center
06:37PM 33.3978 -84.0836 309° West 391 450 12,000 -720 Descending Atlanta Center
06:37PM 33.4333 -84.1333 311° West 385 443 12,000  Level Atlanta TRACON
06:38PM 33.4833 -84.2333 301° West 349 402 12,000 -60 Level Atlanta TRACON
06:39PM 33.5333 -84.3000 312° West 269 310 11,900 -900 Descending Atlanta TRACON
06:40PM 33.5500 -84.3833 284° West 259 298 10,300 -1,620 Descending Atlanta TRACON
06:41PM 33.5500 -84.4833 270° West 255 293 8,600 -1,740 Descending Atlanta TRACON
06:42PM 33.5500 -84.5667 270° West 235 270 6,700 -1,980 Descending Atlanta TRACON
06:43PM 33.5500 -84.6333 270° West 229 264 4,700 -1,500 Descending Atlanta TRACON
06:44PM 33.5833 -84.6667 320° Northwest 217 250 3,800 -660 Descending Atlanta TRACON
06:45PM 33.6167 -84.6167 51° Northeast 185 213 3,400 -480 Descending Atlanta TRACON
06:46PM 33.6167 -84.5667 90° East 183 211 2,900 -720 Descending Atlanta TRACON
06:47PM 33.6167 -84.5167 90° East 156 180 2,100 -840 Descending Atlanta TRACON
06:48PM 33.6167 -84.4667 90° East 128 147 1,400 -720 Descending Atlanta TRACON
06:50PM 33.6333 -84.4167 64° Northeast  Level FlightAware Approximate